Terminal Aerodrome Forecast
Issued by NWS

Home | Current Version | Previous Version | Graphics & Text | Print | Product List | Glossary On
Versions: 1 2 3 4 5 6 7 8 9 10 11 12
264
FTUS43 KFGF 231727
TAFBJI
TAF
KBJI 231727Z 2318/2418 31007KT P6SM FEW200
     FM240500 35007KT P6SM BKN100
     FM241600 35011G17KT P6SM SCT250=

USA.gov is the U.S. government's official web portal to all federal, state and local government web resources and services.